Flight Track Log - Related Links

Times and Time Zones

All times are in EDT time to prevent confusion due to time zone crossing. See the EJA930 flight status page for this flight to view local times or setup timezone preferences in your user account.

Time Position Orientation Groundspeed Altitude Reporting Facility
EDT Latitude Longitude Course Direction KTS MPH feet Rate Location/Type
Wed 10:32:47 AM 39.6833 -75.6167 247° West 160 184 700  Level Philadelphia TRACON
Wed 10:33:23 AM 39.6667 -75.6667 247° West 215 247 2,700 3,333 Climbing Philadelphia TRACON
Wed 10:34:17 AM 39.6333 -75.7000 218° Southwest 226 260 5,700 2,714 Climbing Philadelphia TRACON
Wed 10:35:29 AM 39.5928 -75.6022 118° Southeast 277 319 8,400 2,391 Climbing Washington Center
Wed 10:36:30 AM 39.5303 -75.5217 135° Southeast 288 331 11,000 1,950 Climbing Washington Center
Wed 10:37:29 AM 39.4447 -75.5244 181° South 303 349 12,300 1,563 Climbing Washington Center
Wed 10:38:29 AM 39.3342 -75.5217 179° South 350 403 14,100 1,623 Climbing Washington Center
Wed 10:39:31 AM 39.2406 -75.5219 180° South 377 434 15,600 1,377 Climbing Washington Center
Wed 10:40:31 AM 39.1175 -75.5219 180° South 388 447 16,900 900 Climbing Washington Center
Wed 10:41:31 AM 39.0050 -75.5222 180° South 422 486 17,400 1,017 Climbing Washington Center
Wed 10:42:29 AM 38.8861 -75.5197 179° South 428 493 18,900 1,678 Climbing Washington Center
Wed 10:43:29 AM 38.7714 -75.5197 180° South 428 493 20,700 1,636 Climbing Washington Center
Wed 10:44:30 AM 38.6569 -75.5172 179° South 417 480 22,200 1,488 Climbing Washington Center
Wed 10:45:30 AM 38.5339 -75.5147 179° South 417 480 23,700 1,488 Climbing Washington Center
Wed 10:46:31 AM 38.4108 -75.5147 180° South 422 486 25,200 1,240 Climbing Washington Center
Wed 10:47:31 AM 38.2942 -75.5572 196° South 428 493 26,200 1,119 Climbing Washington Center
Wed 10:48:29 AM 38.1919 -75.6472 215° Southwest 428 493 27,400 1,160 Climbing Washington Center
Wed 10:49:30 AM 38.0939 -75.7447 218° Southwest 443 510 28,500 1,091 Climbing Washington Center
Wed 10:50:30 AM 38.0019 -75.8342 217° Southwest 459 528 29,600 1,250 Climbing Washington Center
Wed 10:51:30 AM 37.8994 -75.9314 217° Southwest 466 536 31,000 1,240 Climbing Washington Center
Wed 10:52:31 AM 37.7928 -76.0281 216° Southwest 466 536 32,100 992 Climbing Washington Center
Wed 10:53:31 AM 37.6881 -76.1350 219° Southwest 477 549 33,000 966 Climbing Washington Center
Wed 10:54:29 AM 37.5750 -76.2286 213° Southwest 487 560 34,000 1,261 Climbing Washington Center
Wed 10:55:30 AM 37.4661 -76.3297 216° Southwest 492 566 35,500 1,525 Climbing Washington Center
Wed 10:56:31 AM 37.3547 -76.4278 215° Southwest 492 566 37,100 1,250 Climbing Washington Center
Wed 10:57:30 AM 37.2456 -76.5311 217° Southwest 497 572 38,000 454 Climbing Washington Center
Wed 10:58:30 AM 37.1319 -76.6339 216° Southwest 502 578 38,000  Level Washington Center
Wed 10:59:31 AM 37.0100 -76.7442 216° Southwest 502 578 38,000  Level Washington Center
Wed 11:00:31 AM 36.9028 -76.8439 217° Southwest 497 572 38,000  Level Washington Center
Wed 11:01:29 AM 36.8142 -76.9228 215° Southwest 497 572 38,000  Level Washington Center
Wed 11:02:31 AM 36.6794 -77.0422 215° Southwest 497 572 38,000  Level Washington Center
Wed 11:03:31 AM 36.5694 -77.1489 218° Southwest 497 572 38,000  Level Washington Center
Wed 11:04:29 AM 36.4681 -77.2450 217° Southwest 513 590 38,000  Level Washington Center
Wed 11:05:30 AM 36.3581 -77.3508 218° Southwest 513 590 38,000  Level Washington Center
Wed 11:06:31 AM 36.2439 -77.4539 216° Southwest 513 590 38,000  Level Washington Center
Wed 11:07:29 AM 36.1378 -77.5594 219° Southwest 508 585 38,000  Level Washington Center
Wed 11:08:30 AM 36.0233 -77.6644 217° Southwest 508 585 38,000  Level Washington Center
Wed 11:09:31 AM 35.9047 -77.7614 214° Southwest 513 590 38,000  Level Washington Center
Wed 11:10:31 AM 35.7861 -77.8556 213° Southwest 513 590 38,000  Level Washington Center
Wed 11:11:29 AM 35.6656 -77.9492 212° Southwest 518 596 38,000  Level Washington Center
Wed 11:12:30 AM 35.5361 -78.0500 212° Southwest 513 590 38,000  Level Washington Center
Wed 11:13:30 AM 35.4133 -78.1406 211° Southwest 513 590 38,000  Level Washington Center
Wed 11:14:29 AM 35.2944 -78.2336 213° Southwest 513 590 38,000  Level Washington Center
Wed 11:15:30 AM 35.1756 -78.3286 213° Southwest 513 590 38,000 -148 Level Washington Center
Wed 11:16:31 AM 35.0564 -78.4186 212° Southwest 513 590 37,700 -1,438 Descending Washington Center
Wed 11:17:31 AM 34.9394 -78.5083 212° Southwest 513 590 35,100 -2,695 Descending Washington Center
Wed 11:18:29 AM 34.8225 -78.6003 213° Southwest 513 590 32,400 -2,048 Descending Washington Center
Wed 11:20:59 AM 34.5281 -78.8200 212° Southwest 507 583 28,000 -1,257 Descending Jacksonville Center
Wed 11:21:59 AM 34.4042 -78.9239 215° Southwest 507 583 28,000 -650 Level Jacksonville Center
Wed 11:22:59 AM 34.2836 -79.0125 211° Southwest 507 583 26,700 -1,500 Descending Jacksonville Center
Wed 11:23:59 AM 34.1564 -79.0783 203° Southwest 501 577 25,000 -1,700 Descending Jacksonville Center
Wed 11:24:59 AM 34.0308 -79.1314 199° South 493 567 23,300 -1,700 Descending Jacksonville Center
Wed 11:25:59 AM 33.9092 -79.1842 200° South 480 552 21,600 -1,750 Descending Jacksonville Center
Wed 11:26:59 AM 33.8000 -79.2336 201° Southwest 469 540 19,800 -1,800 Descending Jacksonville Center
Wed 11:27:59 AM 33.6978 -79.3053 210° Southwest 463 533 18,000 -1,600 Descending Jacksonville Center
Wed 11:28:59 AM 33.5936 -79.3844 212° Southwest 445 512 16,600 -1,750 Descending Jacksonville Center
Wed 11:29:59 AM 33.4933 -79.4606 212° Southwest 440 506 14,500 -2,050 Descending Jacksonville Center
Wed 11:30:59 AM 33.3931 -79.5342 212° Southwest 435 501 12,500 -1,900 Descending Jacksonville Center
Wed 11:31:59 AM 33.2989 -79.6047 212° Southwest 420 483 10,700 -1,300 Descending Jacksonville Center
Wed 11:32:59 AM 33.2236 -79.6722 217° Southwest 385 443 9,900 -1,250 Descending Jacksonville Center
Wed 11:33:59 AM 33.1775 -79.7458 233° Southwest 319 367 8,200 -1,750 Descending Jacksonville Center
Wed 11:34:59 AM 33.1375 -79.8242 239° Southwest 295 339 6,400 -1,800 Descending Jacksonville Center
Wed 11:35:59 AM 33.1019 -79.8997 241° Southwest 281 323 4,600 -1,850 Descending Jacksonville Center
Wed 11:36:59 AM 33.0489 -79.9558 222° Southwest 271 312 2,700 -1,550 Descending Jacksonville Center
Wed 11:37:59 AM 32.9831 -79.9953 207° Southwest 256 295 1,500 -950 Descending Jacksonville Center
Wed 11:38:59 AM 32.9336 -80.0217 204° Southwest 231 266 800 -700 Descending Jacksonville Center
Wed 11:40:00 AM 32.8986 -80.0405 196° South  Level Estimated
Wed 11:47:00 AM 32.8986 -80.0405 196° South  Level Estimated
Wed 11:48:00 AM 32.8986 -80.0405 196° South  Level Estimated

Login

Don't have an account? Register now (free) for customized features, flight alerts, and more!